createdAt,value
2022-08-17T00:01:51.795Z,11.77
2022-08-17T00:04:20.426Z,12.52
2022-08-17T00:06:49.234Z,11.15
2022-08-17T00:09:18.660Z,12.50
2022-08-17T00:12:42.721Z,11.52
2022-08-17T00:14:33.473Z,11.68
2022-08-17T00:17:00.419Z,12.82
2022-08-17T00:19:27.335Z,12.25
2022-08-17T00:22:33.253Z,12.02
2022-08-17T00:24:44.504Z,12.05
2022-08-17T00:27:11.348Z,12.40
2022-08-17T00:29:38.341Z,12.15
2022-08-17T00:33:23.255Z,12.00
2022-08-17T00:34:55.119Z,11.48
2022-08-17T00:37:21.952Z,12.23
2022-08-17T00:39:48.929Z,11.98
2022-08-17T00:42:18.506Z,11.90
2022-08-17T00:44:45.668Z,11.48
2022-08-17T00:47:12.549Z,11.40
2022-08-17T00:49:39.393Z,11.40
2022-08-17T00:52:12.767Z,11.57
2022-08-17T00:54:42.527Z,11.65
2022-08-17T00:57:21.937Z,11.40
2022-08-17T01:00:01.997Z,11.75
2022-08-17T01:02:34.985Z,11.90
2022-08-17T01:05:13.265Z,11.30
2022-08-17T01:07:40.865Z,11.00
2022-08-17T01:10:08.904Z,11.73
2022-08-17T01:12:56.813Z,11.18
2022-08-17T01:15:24.054Z,11.43
2022-08-17T01:17:50.955Z,12.15
2022-08-17T01:20:17.960Z,11.32
2022-08-17T01:22:44.855Z,12.18
2022-08-17T01:25:12.665Z,12.18
2022-08-17T01:27:39.939Z,11.85
2022-08-17T01:30:57.975Z,11.60
2022-08-17T01:32:58.142Z,12.30
2022-08-17T01:35:25.259Z,12.50
2022-08-17T01:37:52.098Z,12.18
2022-08-17T01:40:26.421Z,11.77
2022-08-17T01:42:57.442Z,12.02
2022-08-17T01:45:28.375Z,11.68
2022-08-17T01:47:55.546Z,12.07
2022-08-17T01:50:26.600Z,12.10
2022-08-17T01:52:57.542Z,12.53
2022-08-17T01:55:31.079Z,12.35
2022-08-17T01:57:58.171Z,11.43
2022-08-17T02:00:26.876Z,12.25
2022-08-17T02:03:13.714Z,12.30
2022-08-17T02:05:40.785Z,12.23
2022-08-17T02:08:18.422Z,12.50
2022-08-17T02:10:48.648Z,12.02
2022-08-17T02:13:16.481Z,13.60
2022-08-17T02:15:43.681Z,11.65
2022-08-17T02:18:11.873Z,12.38
2022-08-17T02:20:42.573Z,11.45
2022-08-17T02:23:31.198Z,11.50
2022-08-17T02:25:59.812Z,11.27
2022-08-17T02:28:28.444Z,12.35
2022-08-17T02:31:01.205Z,12.55
2022-08-17T02:33:43.023Z,13.35
2022-08-17T02:36:12.482Z,11.68
2022-08-17T02:38:40.689Z,12.40
2022-08-17T02:41:07.964Z,12.05
2022-08-17T02:43:34.976Z,11.90
2022-08-17T02:46:03.250Z,11.32
2022-08-17T02:48:32.051Z,12.32
2022-08-17T02:51:00.346Z,12.52
2022-08-17T02:53:27.813Z,12.20
2022-08-17T02:56:04.155Z,11.43
2022-08-17T02:58:35.094Z,12.10
2022-08-17T03:01:05.125Z,11.38
2022-08-17T03:03:32.648Z,11.25
2022-08-17T03:05:59.515Z,11.50
2022-08-17T03:08:26.635Z,11.30
2022-08-17T03:10:53.993Z,12.05
2022-08-17T03:13:20.870Z,11.35
2022-08-17T03:15:48.542Z,12.57
2022-08-17T03:18:24.263Z,12.05
2022-08-17T03:20:56.784Z,12.13
2022-08-17T03:23:25.245Z,12.63
2022-08-17T03:25:54.009Z,12.63
2022-08-17T03:28:22.166Z,12.57
2022-08-17T03:30:51.352Z,13.65
2022-08-17T03:33:19.284Z,11.45
2022-08-17T03:35:46.605Z,12.18
2022-08-17T03:38:15.007Z,12.23
2022-08-17T03:40:56.290Z,11.55
2022-08-17T03:43:28.067Z,11.50
2022-08-17T03:46:33.981Z,11.98
2022-08-17T03:49:19.460Z,12.50
2022-08-17T03:52:04.858Z,12.38
2022-08-17T03:54:50.501Z,11.73
2022-08-17T03:57:17.481Z,11.90
2022-08-17T03:59:45.167Z,13.15
2022-08-17T04:02:36.927Z,12.35
2022-08-17T04:05:04.194Z,12.32
2022-08-17T04:07:31.745Z,12.68
2022-08-17T04:09:59.461Z,12.77
2022-08-17T04:12:31.145Z,12.43
2022-08-17T04:14:58.594Z,12.35
2022-08-17T04:17:27.710Z,12.10
2022-08-17T04:19:55.362Z,10.93
2022-08-17T04:22:31.131Z,11.35
2022-08-17T04:25:16.653Z,11.40
2022-08-17T04:27:43.552Z,11.73
2022-08-17T04:30:11.053Z,12.40
2022-08-17T04:33:05.527Z,11.88
2022-08-17T04:35:55.352Z,12.02
2022-08-17T04:38:24.622Z,11.93
2022-08-17T04:41:10.488Z,12.40
2022-08-17T04:43:40.031Z,11.57
2022-08-17T04:46:12.845Z,13.38
2022-08-17T04:48:42.735Z,13.10
2022-08-17T04:51:23.765Z,13.10
2022-08-17T04:53:54.477Z,14.05
2022-08-17T04:56:23.169Z,15.23
2022-08-17T04:58:51.702Z,14.07
2022-08-17T05:01:23.938Z,14.00
2022-08-17T05:03:53.236Z,13.93
2022-08-17T05:06:20.524Z,13.35
2022-08-17T05:08:47.435Z,13.60
2022-08-17T05:11:14.624Z,13.55
2022-08-17T05:13:44.837Z,13.05
2022-08-17T05:16:12.071Z,12.77
2022-08-17T05:18:39.162Z,14.02
2022-08-17T05:21:06.928Z,13.38
2022-08-17T05:23:42.904Z,13.88
2022-08-17T05:26:21.387Z,13.80
2022-08-17T05:28:52.802Z,13.07
2022-08-17T05:31:21.257Z,14.45
2022-08-17T05:33:49.575Z,14.45
2022-08-17T05:36:42.603Z,13.93
2022-08-17T05:39:03.674Z,14.07
2022-08-17T05:41:30.493Z,14.13
2022-08-17T05:43:57.325Z,14.23
2022-08-17T05:46:26.708Z,13.48
2022-08-17T05:48:57.437Z,13.80
2022-08-17T05:51:48.450Z,13.48
2022-08-17T05:54:21.285Z,12.63
2022-08-17T05:57:03.230Z,13.13
2022-08-17T05:59:41.626Z,13.25
2022-08-17T06:02:27.362Z,13.32
2022-08-17T06:05:00.215Z,12.90
2022-08-17T06:07:42.599Z,11.85
2022-08-17T06:10:34.289Z,11.80
2022-08-17T06:13:04.508Z,11.07
2022-08-17T06:15:55.239Z,11.73
2022-08-17T06:18:24.542Z,10.77
2022-08-17T06:20:56.838Z,10.27
2022-08-17T06:23:36.845Z,9.65
2022-08-17T06:26:14.436Z,9.77
2022-08-17T06:28:49.569Z,10.27
2022-08-17T06:31:22.291Z,9.85
2022-08-17T06:33:49.527Z,9.32
2022-08-17T06:36:32.425Z,8.77
2022-08-17T06:39:44.684Z,8.60
2022-08-17T06:42:54.909Z,8.45
2022-08-17T06:45:07.954Z,8.63
2022-08-17T06:47:42.294Z,9.25
2022-08-17T06:50:15.580Z,8.27
2022-08-17T06:52:52.570Z,8.57
2022-08-17T06:55:45.141Z,8.73
2022-08-17T06:58:15.947Z,8.50
2022-08-17T07:00:45.892Z,8.32
2022-08-17T07:03:28.430Z,9.05
2022-08-17T07:05:59.337Z,7.90
2022-08-17T07:08:35.203Z,8.55
2022-08-17T07:11:08.589Z,8.48
2022-08-17T07:14:04.024Z,8.10
2022-08-17T07:16:42.000Z,8.43
2022-08-17T07:19:13.698Z,8.77
2022-08-17T07:21:43.487Z,9.48
2022-08-17T07:24:47.355Z,8.48
2022-08-17T07:27:22.258Z,8.27
2022-08-17T07:30:00.676Z,7.82
2022-08-17T07:32:37.954Z,7.95
2022-08-17T07:35:12.963Z,7.40
2022-08-17T07:37:54.082Z,8.18
2022-08-17T07:40:22.734Z,7.35
2022-08-17T07:43:07.821Z,6.80
2022-08-17T07:46:21.342Z,7.20
2022-08-17T07:48:54.922Z,6.72
2022-08-17T07:51:32.660Z,6.47
2022-08-17T07:54:24.742Z,6.90
2022-08-17T07:56:57.529Z,6.70
2022-08-17T07:59:35.730Z,6.90
2022-08-17T08:02:29.536Z,6.80
2022-08-17T08:05:06.810Z,7.18
2022-08-17T08:07:56.522Z,7.10
2022-08-17T08:10:30.733Z,6.30
2022-08-17T08:13:08.492Z,6.53
2022-08-17T08:15:58.283Z,7.25
2022-08-17T08:18:41.201Z,6.10
2022-08-17T08:21:47.215Z,6.40
2022-08-17T08:24:40.215Z,6.18
2022-08-17T08:27:28.736Z,5.70
2022-08-17T08:30:02.945Z,6.10
2022-08-17T08:32:54.130Z,6.18
2022-08-17T08:35:44.515Z,5.50
2022-08-17T08:38:43.956Z,5.47
2022-08-17T08:41:22.905Z,6.00
2022-08-17T08:44:17.684Z,5.97
2022-08-17T08:47:03.305Z,6.07
2022-08-17T08:50:03.297Z,6.00
2022-08-17T08:52:35.744Z,6.15
2022-08-17T08:55:11.903Z,5.70
2022-08-17T08:57:53.945Z,5.15
2022-08-17T09:00:23.893Z,5.38
2022-08-17T09:03:28.063Z,5.17
2022-08-17T09:06:33.417Z,5.97
2022-08-17T09:09:22.864Z,5.70
2022-08-17T09:12:17.918Z,5.25
2022-08-17T09:15:01.262Z,5.50
2022-08-17T09:18:08.656Z,4.47
2022-08-17T09:20:50.389Z,5.28
2022-08-17T09:23:33.513Z,5.18
2022-08-17T09:26:12.433Z,4.10
2022-08-17T09:28:42.635Z,4.30
2022-08-17T09:31:14.453Z,4.95
2022-08-17T09:33:44.862Z,3.65
2022-08-17T09:36:13.068Z,4.82
2022-08-17T09:38:53.321Z,4.00
2022-08-17T09:41:50.508Z,3.95
2022-08-17T09:44:51.432Z,4.20
2022-08-17T09:47:42.156Z,4.22
2022-08-17T09:51:07.980Z,4.57
2022-08-17T09:53:38.911Z,4.70
2022-08-17T09:56:24.222Z,3.83
2022-08-17T09:59:00.499Z,3.58
2022-08-17T10:01:38.214Z,3.85
2022-08-17T10:04:21.523Z,4.78
2022-08-17T10:07:07.157Z,4.05
2022-08-17T10:09:43.054Z,3.83
2022-08-17T10:12:29.981Z,3.95
2022-08-17T10:15:08.026Z,3.97
2022-08-17T10:17:55.648Z,4.63
2022-08-17T10:21:15.987Z,4.35
2022-08-17T10:24:02.882Z,4.32
2022-08-17T10:26:40.337Z,4.80
2022-08-17T10:29:44.172Z,4.00
2022-08-17T10:32:35.344Z,4.18
2022-08-17T10:35:39.834Z,4.10
2022-08-17T10:38:21.552Z,4.35
2022-08-17T10:41:00.295Z,4.30
2022-08-17T10:44:37.573Z,5.32
2022-08-17T10:47:01.496Z,4.30
2022-08-17T10:49:34.822Z,4.38
2022-08-17T10:52:08.971Z,4.22
2022-08-17T10:54:35.951Z,4.28
2022-08-17T10:57:02.791Z,4.20
2022-08-17T10:59:35.556Z,3.90
2022-08-17T11:02:12.242Z,5.13
2022-08-17T11:05:00.191Z,4.10
2022-08-17T11:10:52.076Z,4.32
2022-08-17T11:13:33.930Z,4.40
2022-08-17T11:16:19.777Z,4.38
2022-08-17T11:19:10.706Z,4.35
2022-08-17T11:22:05.844Z,4.60
2022-08-17T11:24:47.689Z,4.00
2022-08-17T11:27:30.533Z,4.57
2022-08-17T11:30:11.519Z,4.28
2022-08-17T11:32:54.423Z,4.80
2022-08-17T11:35:22.162Z,4.30
2022-08-17T11:38:06.382Z,4.13
2022-08-17T11:40:59.641Z,4.50
2022-08-17T11:43:48.158Z,5.10
2022-08-17T11:46:54.725Z,4.72
2022-08-17T11:49:50.357Z,4.55
2022-08-17T11:52:46.714Z,4.38
2022-08-17T11:55:35.741Z,5.05
2022-08-17T11:58:31.726Z,4.65
2022-08-17T12:01:04.315Z,5.13
2022-08-17T12:03:36.919Z,4.68
2022-08-17T12:06:30.506Z,5.25
2022-08-17T12:09:08.010Z,6.22
2022-08-17T12:12:11.350Z,4.82
2022-08-17T12:17:39.249Z,4.60
2022-08-17T12:20:22.231Z,4.88
2022-08-17T12:23:22.558Z,4.80
2022-08-17T12:26:11.000Z,4.57
2022-08-17T12:28:39.553Z,4.28
2022-08-17T12:31:12.114Z,4.47
2022-08-17T12:33:43.535Z,4.43
2022-08-17T12:36:16.832Z,4.50
2022-08-17T12:39:14.095Z,4.35
2022-08-17T12:44:21.322Z,4.22
2022-08-17T12:47:04.498Z,3.80
2022-08-17T12:49:36.929Z,4.53
2022-08-17T12:52:09.260Z,4.47
2022-08-17T12:54:59.405Z,4.47
2022-08-17T12:58:03.671Z,5.47
2022-08-17T13:00:38.137Z,4.88
2022-08-17T13:03:17.023Z,4.80
2022-08-17T13:05:53.291Z,4.53
2022-08-17T13:08:27.217Z,5.00
2022-08-17T13:10:57.723Z,5.70
2022-08-17T13:13:31.191Z,5.65
2022-08-17T13:16:09.485Z,4.95
2022-08-17T13:18:42.446Z,5.18
2022-08-17T13:21:30.392Z,5.05
2022-08-17T13:24:03.022Z,5.60
2022-08-17T13:26:31.890Z,5.20
2022-08-17T13:28:59.544Z,5.60
2022-08-17T13:31:28.438Z,5.50
2022-08-17T13:34:20.302Z,5.70
2022-08-17T13:36:50.747Z,6.05
2022-08-17T13:39:21.377Z,6.38
2022-08-17T13:41:50.073Z,6.40
2022-08-17T13:44:37.989Z,6.65
2022-08-17T13:47:15.687Z,6.25
2022-08-17T13:49:48.979Z,5.70
2022-08-17T13:52:34.811Z,5.75
2022-08-17T13:55:05.667Z,6.55
2022-08-17T13:57:32.632Z,6.15
2022-08-17T14:00:19.778Z,5.68
2022-08-17T14:02:46.717Z,5.75
2022-08-17T14:05:13.643Z,7.15
2022-08-17T14:07:40.997Z,6.88
2022-08-17T14:10:15.234Z,6.15
2022-08-17T14:12:43.672Z,6.45
2022-08-17T14:15:14.924Z,5.97
2022-08-17T14:20:10.747Z,6.63
2022-08-17T14:22:40.707Z,6.32
2022-08-17T14:25:10.312Z,5.93
2022-08-17T14:27:52.005Z,5.90
2022-08-17T14:30:26.781Z,5.93
2022-08-17T14:32:58.056Z,5.95
2022-08-17T14:35:25.474Z,5.68
2022-08-17T14:37:53.155Z,7.07
2022-08-17T14:40:22.620Z,6.80
2022-08-17T14:42:50.006Z,7.00
2022-08-17T14:45:30.002Z,7.25
2022-08-17T14:48:08.658Z,7.47
2022-08-17T14:50:43.139Z,7.78
2022-08-17T14:53:11.976Z,6.75
2022-08-17T14:55:40.666Z,6.45
2022-08-17T14:58:09.416Z,5.82
2022-08-17T15:00:36.499Z,6.22
2022-08-17T15:03:04.865Z,6.47
2022-08-17T15:05:36.689Z,6.72
2022-08-17T15:08:04.696Z,6.90
2022-08-17T15:10:32.421Z,6.28
2022-08-17T15:13:00.194Z,6.38
2022-08-17T15:15:27.656Z,6.38
2022-08-17T15:17:54.974Z,6.35
2022-08-17T15:20:28.239Z,7.03
2022-08-17T15:22:57.189Z,6.53
2022-08-17T15:25:26.577Z,6.70
2022-08-17T15:27:55.497Z,6.22
2022-08-17T15:30:22.444Z,6.78
2022-08-17T15:32:54.446Z,6.80
2022-08-17T15:35:28.740Z,6.53
2022-08-17T15:37:57.978Z,6.25
2022-08-17T15:40:25.234Z,6.05
2022-08-17T15:42:52.767Z,5.95
2022-08-17T15:45:24.614Z,6.70
2022-08-17T15:47:53.454Z,6.30
2022-08-17T15:50:22.991Z,6.03
2022-08-17T15:52:55.397Z,5.93
2022-08-17T15:55:27.265Z,5.97
2022-08-17T15:57:55.825Z,6.15
2022-08-17T16:00:24.159Z,6.38
2022-08-17T16:03:45.086Z,5.85
2022-08-17T16:05:48.268Z,5.93
2022-08-17T16:08:20.740Z,5.78
2022-08-17T16:10:49.602Z,5.60
2022-08-17T16:13:18.197Z,5.65
2022-08-17T16:15:53.018Z,5.53
2022-08-17T16:18:27.371Z,5.90
2022-08-17T16:20:55.205Z,5.60
2022-08-17T16:23:22.615Z,5.70
2022-08-17T16:25:53.945Z,5.88
2022-08-17T16:28:21.976Z,6.32
2022-08-17T16:30:48.926Z,5.50
2022-08-17T16:33:16.794Z,6.22
2022-08-17T16:35:43.971Z,6.10
2022-08-17T16:38:12.604Z,6.25
2022-08-17T16:40:40.467Z,5.75
2022-08-17T16:43:10.600Z,6.65
2022-08-17T16:45:40.314Z,5.95
2022-08-17T16:48:08.722Z,6.78
2022-08-17T16:50:36.144Z,5.95
2022-08-17T16:53:17.212Z,6.72
2022-08-17T16:55:45.277Z,6.68
2022-08-17T16:58:12.193Z,6.95
2022-08-17T17:00:39.168Z,6.90
2022-08-17T17:03:19.908Z,6.18
2022-08-17T17:05:58.058Z,6.32
2022-08-17T17:08:46.773Z,7.03
2022-08-17T17:11:23.378Z,6.35
2022-08-17T17:13:58.461Z,6.55
2022-08-17T17:16:31.974Z,6.53
2022-08-17T17:19:34.585Z,6.50
2022-08-17T17:22:29.601Z,6.80
2022-08-17T17:25:18.025Z,7.45
2022-08-17T17:27:58.901Z,6.75
2022-08-17T17:30:44.201Z,6.30
2022-08-17T17:33:25.265Z,6.35
2022-08-17T17:36:07.120Z,6.88
2022-08-17T17:41:16.023Z,6.68
2022-08-17T17:43:43.755Z,6.03
2022-08-17T17:46:34.201Z,6.60
2022-08-17T17:49:01.150Z,7.03
2022-08-17T17:51:54.980Z,6.00
2022-08-17T17:54:54.471Z,7.20
2022-08-17T17:57:51.112Z,6.72
2022-08-17T18:00:44.744Z,6.55
2022-08-17T18:03:17.003Z,6.60
2022-08-17T18:06:01.148Z,7.18
2022-08-17T18:08:32.310Z,6.95
2022-08-17T18:11:07.086Z,6.80
2022-08-17T18:13:36.903Z,6.72
2022-08-17T18:16:07.676Z,6.32
2022-08-17T18:18:44.590Z,6.70
2022-08-17T18:21:19.295Z,7.13
2022-08-17T18:24:07.197Z,7.07
2022-08-17T18:26:45.063Z,6.28
2022-08-17T18:29:34.426Z,7.03
2022-08-17T18:32:25.502Z,6.95
2022-08-17T18:34:57.245Z,7.83
2022-08-17T18:39:53.966Z,7.47
2022-08-17T18:42:30.642Z,7.43
2022-08-17T18:44:57.724Z,7.53
2022-08-17T18:47:29.409Z,7.65
2022-08-17T18:52:42.289Z,8.50
2022-08-17T18:55:15.197Z,9.05
2022-08-17T18:57:48.984Z,8.18
2022-08-17T19:00:21.301Z,8.60
2022-08-17T19:02:57.700Z,8.98
2022-08-17T19:05:37.890Z,8.40
2022-08-17T19:08:18.371Z,8.00
2022-08-17T19:10:47.451Z,8.45
2022-08-17T19:13:24.020Z,8.20
2022-08-17T19:16:22.870Z,9.45
2022-08-17T19:18:49.652Z,9.18
2022-08-17T19:21:36.319Z,9.30
2022-08-17T19:24:23.041Z,8.20
2022-08-17T19:27:22.501Z,8.55
2022-08-17T19:29:54.476Z,9.40
2022-08-17T19:32:34.429Z,9.00
2022-08-17T19:35:02.702Z,8.55
2022-08-17T19:37:57.939Z,8.88
2022-08-17T19:40:58.587Z,8.85
2022-08-17T19:43:48.072Z,9.27
2022-08-17T19:46:50.085Z,9.88
2022-08-17T19:49:33.521Z,10.30
2022-08-17T19:52:33.289Z,13.40
2022-08-17T19:55:32.643Z,11.00
2022-08-17T19:58:17.815Z,9.85
2022-08-17T20:00:50.428Z,8.52
2022-08-17T20:03:35.025Z,9.23
2022-08-17T20:06:13.805Z,9.63
2022-08-17T20:08:53.205Z,9.32
2022-08-17T20:11:27.172Z,9.27
2022-08-17T20:14:22.500Z,9.07
2022-08-17T20:16:50.080Z,9.77
2022-08-17T20:19:23.524Z,9.50
2022-08-17T20:21:56.302Z,9.77
2022-08-17T20:24:36.721Z,10.57
2022-08-17T20:27:14.707Z,10.50
2022-08-17T20:30:25.657Z,10.27
2022-08-17T20:32:56.910Z,10.60
2022-08-17T20:35:40.488Z,10.68
2022-08-17T20:38:14.960Z,9.88
2022-08-17T20:40:54.064Z,10.52
2022-08-17T20:43:33.597Z,10.60
2022-08-17T20:46:40.286Z,10.57
2022-08-17T20:49:37.994Z,11.80
2022-08-17T20:52:15.610Z,11.18
2022-08-17T20:54:57.418Z,11.35
2022-08-17T20:57:33.863Z,11.73
2022-08-17T21:00:17.162Z,11.63
2022-08-17T21:02:50.001Z,11.48
2022-08-17T21:05:34.583Z,10.48
2022-08-17T21:08:29.646Z,11.77
2022-08-17T21:10:58.497Z,11.55
2022-08-17T21:14:08.266Z,11.18
2022-08-17T21:16:59.181Z,11.88
2022-08-17T21:20:10.754Z,10.80
2022-08-17T21:23:00.461Z,11.65
2022-08-17T21:25:42.040Z,12.07
2022-08-17T21:28:34.931Z,13.13
2022-08-17T21:31:09.001Z,11.60
2022-08-17T21:33:39.963Z,11.13
2022-08-17T21:36:12.876Z,12.27
2022-08-17T21:39:08.696Z,11.65
2022-08-17T21:41:55.267Z,11.57
2022-08-17T21:44:32.996Z,12.25
2022-08-17T21:47:21.858Z,12.52
2022-08-17T21:49:49.093Z,11.82
2022-08-17T21:52:23.962Z,11.57
2022-08-17T21:54:53.923Z,12.40
2022-08-17T21:57:23.984Z,12.57
2022-08-17T21:59:54.153Z,12.10
2022-08-17T22:02:38.091Z,12.35
2022-08-17T22:05:14.326Z,13.02
2022-08-17T22:07:53.328Z,12.90
2022-08-17T22:10:38.674Z,13.65
2022-08-17T22:13:24.234Z,13.27
2022-08-17T22:16:27.881Z,12.77
2022-08-17T22:18:58.378Z,13.02
2022-08-17T22:21:25.554Z,13.40
2022-08-17T22:24:05.375Z,12.88
2022-08-17T22:27:00.113Z,13.57
2022-08-17T22:29:57.209Z,13.32
2022-08-17T22:32:34.545Z,12.65
2022-08-17T22:35:32.693Z,13.35
2022-08-17T22:38:18.942Z,13.50
2022-08-17T22:40:51.836Z,12.95
2022-08-17T22:43:21.337Z,13.32
2022-08-17T22:45:56.109Z,12.90
2022-08-17T22:48:26.702Z,12.98
2022-08-17T22:51:12.249Z,13.43
2022-08-17T22:54:08.970Z,13.32
2022-08-17T22:56:54.921Z,13.57
2022-08-17T22:59:43.867Z,12.85
2022-08-17T23:02:12.679Z,13.18
2022-08-17T23:04:43.436Z,12.55
2022-08-17T23:07:10.445Z,12.80
2022-08-17T23:09:37.357Z,12.98
2022-08-17T23:12:08.747Z,13.50
2022-08-17T23:14:42.505Z,14.13
2022-08-17T23:17:09.382Z,13.25
2022-08-17T23:19:36.475Z,15.10
2022-08-17T23:22:05.713Z,13.60
2022-08-17T23:24:38.235Z,13.55
2022-08-17T23:27:07.386Z,13.77
2022-08-17T23:29:39.434Z,14.32
2022-08-17T23:32:07.139Z,14.40
2022-08-17T23:34:36.325Z,13.55
2022-08-17T23:37:04.458Z,13.80
2022-08-17T23:39:31.729Z,14.00
2022-08-17T23:42:02.386Z,14.20
2022-08-17T23:47:15.745Z,13.98
2022-08-17T23:49:42.722Z,14.30
2022-08-17T23:52:18.497Z,15.07
2022-08-17T23:54:47.154Z,14.63
2022-08-17T23:57:16.815Z,14.57
2022-08-17T23:59:44.212Z,14.30
